createdAt,value
2018-03-22T00:00:26.680Z,98719.17
2018-03-22T00:02:55.475Z,98713.94
2018-03-22T00:05:24.156Z,98708.47
2018-03-22T00:07:52.902Z,98705.46
2018-03-22T00:10:21.510Z,98706.98
2018-03-22T00:12:50.174Z,98710.41
2018-03-22T00:15:18.756Z,98700.64
2018-03-22T00:17:48.272Z,98709.43
2018-03-22T00:20:17.910Z,98702.81
2018-03-22T00:22:48.257Z,98696.96
2018-03-22T00:25:17.863Z,98707.76
2018-03-22T00:27:46.529Z,98699.97
2018-03-22T00:30:15.171Z,98697.79
2018-03-22T00:32:43.771Z,98700.56
2018-03-22T00:35:12.551Z,98690.97
2018-03-22T00:37:41.371Z,98684.47
2018-03-22T00:40:10.131Z,98679.75
2018-03-22T00:42:39.549Z,98671.91
2018-03-22T00:45:09.074Z,98673.81
2018-03-22T00:47:38.452Z,98667.06
2018-03-22T00:50:07.100Z,98669.63
2018-03-22T00:52:37.237Z,98674.59
2018-03-22T00:55:06.349Z,98672.73
2018-03-22T00:57:34.968Z,98669.72
2018-03-22T01:00:04.585Z,98662.58
2018-03-22T01:02:34.029Z,98661.67
2018-03-22T01:05:02.755Z,98665.09
2018-03-22T01:07:31.476Z,98666.08
2018-03-22T01:10:00.144Z,98661.33
2018-03-22T01:12:29.524Z,98652.95
2018-03-22T01:14:58.099Z,98658.02
2018-03-22T01:17:26.812Z,98662.28
2018-03-22T01:19:55.521Z,98653.95
2018-03-22T01:22:24.592Z,98646.82
2018-03-22T01:24:54.542Z,98649.96
2018-03-22T01:27:24.014Z,98639.98
2018-03-22T01:29:52.602Z,98650.57
2018-03-22T01:32:21.194Z,98648.24
2018-03-22T01:34:49.827Z,98635.36
2018-03-22T01:37:19.202Z,98636.92
2018-03-22T01:39:48.519Z,98631.94
2018-03-22T01:42:17.902Z,98632.86
2018-03-22T01:44:46.449Z,98623.77
2018-03-22T01:47:15.748Z,98616.64
2018-03-22T01:49:44.289Z,98616.80
2018-03-22T01:52:12.941Z,98612.34
2018-03-22T01:54:42.138Z,98607.70
2018-03-22T01:57:11.461Z,98599.89
2018-03-22T01:59:40.218Z,98600.45
2018-03-22T02:02:08.964Z,98598.17
2018-03-22T02:04:37.599Z,98601.77
2018-03-22T02:07:07.089Z,98598.50
2018-03-22T02:09:35.794Z,98585.05
2018-03-22T02:12:04.427Z,98581.61
2018-03-22T02:14:33.091Z,98589.16
2018-03-22T02:17:02.533Z,98576.25
2018-03-22T02:19:31.224Z,98575.34
2018-03-22T02:22:00.719Z,98580.91
2018-03-22T02:24:29.247Z,98569.88
2018-03-22T02:26:59.892Z,98563.30
2018-03-22T02:29:29.676Z,98565.39
2018-03-22T02:31:58.372Z,98563.88
2018-03-22T02:34:26.980Z,98555.03
2018-03-22T02:36:55.737Z,98556.45
2018-03-22T02:39:24.320Z,98554.02
2018-03-22T02:41:52.919Z,98545.20
2018-03-22T02:44:22.472Z,98542.70
2018-03-22T02:46:51.138Z,98531.63
2018-03-22T02:49:19.716Z,98533.42
2018-03-22T02:51:48.347Z,98519.88
2018-03-22T02:54:17.002Z,98518.45
2018-03-22T02:56:45.763Z,98514.12
2018-03-22T02:59:15.107Z,98508.96
2018-03-22T03:01:43.999Z,98513.48
2018-03-22T03:04:12.925Z,98502.16
2018-03-22T03:06:41.637Z,98500.34
2018-03-22T03:09:10.665Z,98497.19
2018-03-22T03:11:40.119Z,98496.42
2018-03-22T03:14:08.769Z,98493.52
2018-03-22T03:16:37.390Z,98494.70
2018-03-22T03:19:05.879Z,98492.17
2018-03-22T03:21:34.431Z,98484.41
2018-03-22T03:24:04.050Z,98484.48
2018-03-22T03:26:33.530Z,98471.34
2018-03-22T03:29:02.429Z,98469.27
2018-03-22T03:31:31.698Z,98471.34
2018-03-22T03:34:00.556Z,98462.52
2018-03-22T03:36:29.182Z,98456.26
2018-03-22T03:38:57.837Z,98452.42
2018-03-22T03:41:27.187Z,98450.53
2018-03-22T03:43:56.603Z,98446.18
2018-03-22T03:46:25.162Z,98440.68
2018-03-22T03:48:53.839Z,98434.02
2018-03-22T03:51:22.576Z,98434.39
2018-03-22T03:53:51.498Z,98422.20
2018-03-22T03:56:20.229Z,98419.27
2018-03-22T03:58:49.696Z,98419.48
2018-03-22T04:01:18.608Z,98418.59
2018-03-22T04:03:48.734Z,98416.30
2018-03-22T04:06:17.422Z,98410.08
2018-03-22T04:08:46.026Z,98408.57
2018-03-22T04:11:14.699Z,98393.50
2018-03-22T04:13:43.257Z,98392.70
2018-03-22T04:16:11.948Z,98391.59
2018-03-22T04:18:40.620Z,98388.50
2018-03-22T04:21:09.258Z,98386.69
2018-03-22T04:23:38.533Z,98377.39
2018-03-22T04:26:07.215Z,98386.23
2018-03-22T04:28:35.804Z,98381.61
2018-03-22T04:31:04.404Z,98387.98
2018-03-22T04:33:33.244Z,98395.98
2018-03-22T04:36:03.385Z,98392.09
2018-03-22T04:38:32.528Z,98391.72
2018-03-22T04:41:01.244Z,98387.98
2018-03-22T04:43:29.895Z,98385.58
2018-03-22T04:45:58.508Z,98385.50
2018-03-22T04:48:27.260Z,98382.77
2018-03-22T04:50:55.873Z,98383.82
2018-03-22T04:53:24.509Z,98382.51
2018-03-22T04:55:53.216Z,98381.41
2018-03-22T04:58:21.890Z,98381.98
2018-03-22T05:00:51.274Z,98370.41
2018-03-22T05:03:19.897Z,98367.73
2018-03-22T05:05:48.610Z,98362.87
2018-03-22T05:08:17.499Z,98359.59
2018-03-22T05:10:46.734Z,98356.14
2018-03-22T05:13:15.518Z,98353.32
2018-03-22T05:15:44.165Z,98351.56
2018-03-22T05:18:12.758Z,98354.61
2018-03-22T05:20:41.354Z,98353.55
2018-03-22T05:23:10.282Z,98351.86
2018-03-22T05:25:39.062Z,98360.70
2018-03-22T05:28:07.646Z,98354.53
2018-03-22T05:30:36.324Z,98360.58
2018-03-22T05:33:05.072Z,98361.30
2018-03-22T05:35:33.743Z,98351.05
2018-03-22T05:38:03.100Z,98354.63
2018-03-22T05:40:32.013Z,98359.84
2018-03-22T05:43:01.246Z,98356.61
2018-03-22T05:45:30.184Z,98354.09
2018-03-22T05:47:58.861Z,98346.06
2018-03-22T05:50:28.124Z,98346.25
2018-03-22T05:52:57.668Z,98342.69
2018-03-22T05:55:26.244Z,98336.84
2018-03-22T05:57:54.794Z,98333.20
2018-03-22T06:00:25.140Z,98330.01
2018-03-22T06:02:53.816Z,98322.63
2018-03-22T06:05:23.234Z,98319.72
2018-03-22T06:07:51.912Z,98313.94
2018-03-22T06:10:20.502Z,98321.33
2018-03-22T06:12:49.153Z,98319.02
2018-03-22T06:15:18.484Z,98319.88
2018-03-22T06:17:47.322Z,98329.69
2018-03-22T06:20:15.907Z,98337.45
2018-03-22T06:22:45.411Z,98341.07
2018-03-22T06:25:14.145Z,98337.27
2018-03-22T06:27:43.557Z,98336.73
2018-03-22T06:30:12.106Z,98337.48
2018-03-22T06:32:40.704Z,98346.89
2018-03-22T06:35:09.397Z,98351.68
2018-03-22T06:37:38.000Z,98350.62
2018-03-22T06:40:06.704Z,98349.88
2018-03-22T06:42:36.154Z,98355.31
2018-03-22T06:45:05.012Z,98352.41
2018-03-22T06:47:34.389Z,98349.61
2018-03-22T06:50:03.520Z,98358.23
2018-03-22T06:52:32.183Z,98364.50
2018-03-22T06:55:00.868Z,98365.91
2018-03-22T06:57:29.386Z,98346.98
2018-03-22T06:59:58.834Z,98353.45
2018-03-22T07:02:27.500Z,98352.97
2018-03-22T07:04:56.142Z,98349.30
2018-03-22T07:07:24.814Z,98354.12
2018-03-22T07:09:53.519Z,98351.51
2018-03-22T07:12:22.196Z,98349.84
2018-03-22T07:14:51.318Z,98345.72
2018-03-22T07:17:21.158Z,98339.61
2018-03-22T07:19:49.916Z,98332.92
2018-03-22T07:22:18.867Z,98335.47
2018-03-22T07:24:47.924Z,98322.03
2018-03-22T07:27:17.426Z,98320.42
2018-03-22T07:29:45.971Z,98322.92
2018-03-22T07:32:15.936Z,98302.69
2018-03-22T07:34:44.708Z,98324.09
2018-03-22T07:37:14.561Z,98321.30
2018-03-22T07:39:43.238Z,98318.00
2018-03-22T07:42:12.282Z,98312.03
2018-03-22T07:44:41.102Z,98302.95
2018-03-22T07:47:10.299Z,98306.17
2018-03-22T07:49:41.711Z,98308.23
2018-03-22T07:52:12.253Z,98300.00
2018-03-22T07:54:40.899Z,98299.64
2018-03-22T07:57:09.627Z,98297.56
2018-03-22T07:59:38.248Z,98288.03
2018-03-22T08:02:06.934Z,98290.38
2018-03-22T08:04:36.406Z,98283.83
2018-03-22T08:07:05.111Z,98285.24
2018-03-22T08:09:33.831Z,98274.09
2018-03-22T08:12:02.467Z,98271.35
2018-03-22T08:14:31.126Z,98267.02
2018-03-22T08:16:59.797Z,98261.68
2018-03-22T08:19:29.743Z,98256.78
2018-03-22T08:21:58.775Z,98239.47
2018-03-22T08:24:28.316Z,98243.32
2018-03-22T08:26:58.775Z,98260.97
2018-03-22T08:29:27.582Z,98243.03
2018-03-22T08:31:56.331Z,98249.02
2018-03-22T08:34:25.670Z,98246.09
2018-03-22T08:36:54.960Z,98232.00
2018-03-22T08:39:23.582Z,98223.02
2018-03-22T08:41:52.367Z,98227.57
2018-03-22T08:44:21.057Z,98209.41
2018-03-22T08:46:49.616Z,98204.13
2018-03-22T08:49:18.592Z,98209.13
2018-03-22T08:51:47.856Z,98184.23
2018-03-22T08:54:17.283Z,98193.37
2018-03-22T08:56:45.990Z,98204.82
2018-03-22T08:59:14.576Z,98216.56
2018-03-22T09:01:44.054Z,98202.77
2018-03-22T09:04:12.691Z,98203.98
2018-03-22T09:06:42.122Z,98206.41
2018-03-22T09:09:11.518Z,98202.95
2018-03-22T09:11:40.050Z,98196.50
2018-03-22T09:14:09.436Z,98185.05
2018-03-22T09:16:38.962Z,98173.31
2018-03-22T09:19:07.620Z,98184.15
2018-03-22T09:21:36.627Z,98175.89
2018-03-22T09:24:06.872Z,98172.31
2018-03-22T09:29:36.373Z,98165.48
2018-03-22T09:32:05.045Z,98175.03
2018-03-22T09:34:33.971Z,98167.44
2018-03-22T09:37:02.708Z,98184.58
2018-03-22T09:39:31.301Z,98173.11
2018-03-22T09:41:59.892Z,98165.83
2018-03-22T09:44:28.441Z,98155.73
2018-03-22T09:46:57.922Z,98138.31
2018-03-22T09:49:26.505Z,98149.49
2018-03-22T09:51:55.220Z,98143.98
2018-03-22T09:54:23.812Z,98143.23
2018-03-22T09:56:52.724Z,98129.70
2018-03-22T09:59:22.060Z,98113.91
2018-03-22T10:01:52.223Z,98136.31
2018-03-22T10:04:21.004Z,98123.63
2018-03-22T10:06:49.719Z,98115.59
2018-03-22T10:09:18.411Z,98105.44
2018-03-22T10:11:46.978Z,98103.65
2018-03-22T10:14:16.611Z,98095.55
2018-03-22T10:16:46.178Z,98089.48
2018-03-22T10:19:14.957Z,98083.59
2018-03-22T10:21:43.681Z,98067.02
2018-03-22T10:24:12.441Z,98075.52
2018-03-22T10:26:41.937Z,98068.30
2018-03-22T10:29:10.776Z,98053.68
2018-03-22T10:31:40.183Z,98039.77
2018-03-22T10:34:09.630Z,98030.95
2018-03-22T10:36:40.599Z,98038.45
2018-03-22T10:39:09.385Z,98045.88
2018-03-22T10:41:38.321Z,98028.38
2018-03-22T10:44:07.751Z,98041.36
2018-03-22T10:46:37.252Z,98032.81
2018-03-22T10:49:06.192Z,98033.73
2018-03-22T10:51:36.010Z,98012.98
2018-03-22T10:54:06.334Z,98025.36
2018-03-22T10:56:36.038Z,98016.11
2018-03-22T10:59:07.512Z,98014.28
2018-03-22T11:01:41.639Z,98007.91
2018-03-22T11:04:10.501Z,98013.63
2018-03-22T11:06:39.877Z,98009.22
2018-03-22T11:09:08.859Z,97991.33
2018-03-22T11:11:38.734Z,97992.37
2018-03-22T11:14:07.512Z,97980.08
2018-03-22T11:16:36.268Z,97981.69
2018-03-22T11:19:05.009Z,97980.69
2018-03-22T11:21:35.392Z,97966.48
2018-03-22T11:24:05.031Z,97977.69
2018-03-22T11:26:33.649Z,97973.57
2018-03-22T11:29:02.925Z,97955.03
2018-03-22T11:31:31.518Z,97952.28
2018-03-22T11:34:01.479Z,97956.75
2018-03-22T11:36:30.286Z,97945.14
2018-03-22T11:38:59.266Z,97933.72
2018-03-22T11:41:28.746Z,97934.02
2018-03-22T11:43:57.353Z,97920.91
2018-03-22T11:46:25.947Z,97931.02
2018-03-22T11:48:55.232Z,97928.33
2018-03-22T11:51:24.097Z,97929.10
2018-03-22T11:53:53.466Z,97913.05
2018-03-22T11:56:23.246Z,97917.20
2018-03-22T11:58:52.020Z,97903.09
2018-03-22T12:01:20.777Z,97918.39
2018-03-22T12:03:50.153Z,97912.58
2018-03-22T12:06:18.786Z,97912.21
2018-03-22T12:08:47.428Z,97915.83
2018-03-22T12:11:16.992Z,97899.61
2018-03-22T12:13:45.667Z,97889.06
2018-03-22T12:16:15.204Z,97894.76
2018-03-22T12:18:48.786Z,97894.56
2018-03-22T12:21:18.172Z,97888.09
2018-03-22T12:23:47.131Z,97891.16
2018-03-22T12:26:15.810Z,97887.73
2018-03-22T12:28:44.458Z,97877.73
2018-03-22T12:31:13.824Z,97873.83
2018-03-22T12:33:42.584Z,97870.12
2018-03-22T12:36:12.109Z,97860.75
2018-03-22T12:38:41.719Z,97864.34
2018-03-22T12:41:10.292Z,97862.66
2018-03-22T12:43:38.905Z,97863.13
2018-03-22T12:46:07.513Z,97860.25
2018-03-22T12:48:36.104Z,97862.54
2018-03-22T12:51:05.743Z,97858.36
2018-03-22T12:53:34.845Z,97856.34
2018-03-22T12:56:03.750Z,97856.69
2018-03-22T12:58:32.434Z,97843.53
2018-03-22T13:01:01.770Z,97838.92
2018-03-22T13:03:30.467Z,97837.69
2018-03-22T13:05:59.834Z,97835.59
2018-03-22T13:08:28.483Z,97822.42
2018-03-22T13:10:58.062Z,97825.16
2018-03-22T13:13:27.477Z,97836.37
2018-03-22T13:15:56.238Z,97814.84
2018-03-22T13:18:26.392Z,97805.87
2018-03-22T13:20:56.054Z,97803.47
2018-03-22T13:23:26.286Z,97797.59
2018-03-22T13:25:55.428Z,97788.28
2018-03-22T13:28:24.182Z,97790.83
2018-03-22T13:30:53.912Z,97777.56
2018-03-22T13:33:23.795Z,97779.08
2018-03-22T13:35:52.803Z,97778.36
2018-03-22T13:38:22.383Z,97764.14
2018-03-22T13:40:52.810Z,97756.12
2018-03-22T13:43:21.668Z,97752.77
2018-03-22T13:45:50.584Z,97745.59
2018-03-22T13:48:19.435Z,97739.42
2018-03-22T13:50:49.039Z,97725.95
2018-03-22T13:53:20.159Z,97713.52
2018-03-22T13:55:49.764Z,97712.72
2018-03-22T13:58:19.444Z,97706.37
2018-03-22T14:00:48.273Z,97702.52
2018-03-22T14:03:17.366Z,97700.41
2018-03-22T14:05:46.150Z,97694.37
2018-03-22T14:08:16.467Z,97686.88
2018-03-22T14:10:45.188Z,97677.59
2018-03-22T14:13:13.938Z,97682.95
2018-03-22T14:15:43.220Z,97671.85
2018-03-22T14:18:12.780Z,97658.75
2018-03-22T14:20:44.056Z,97649.62
2018-03-22T14:23:12.743Z,97629.58
2018-03-22T14:25:41.548Z,97641.97
2018-03-22T14:28:10.247Z,97639.22
2018-03-22T14:30:39.751Z,97635.08
2018-03-22T14:33:09.111Z,97637.53
2018-03-22T14:35:37.948Z,97631.36
2018-03-22T14:38:06.724Z,97630.03
2018-03-22T14:40:35.585Z,97632.30
2018-03-22T14:43:05.217Z,97621.17
2018-03-22T14:45:34.718Z,97620.42
2018-03-22T14:48:03.830Z,97621.50
2018-03-22T14:50:33.254Z,97610.31
2018-03-22T14:53:02.255Z,97615.34
2018-03-22T14:55:30.962Z,97605.47
2018-03-22T14:57:59.737Z,97597.90
2018-03-22T15:00:29.309Z,97579.45
2018-03-22T15:02:58.091Z,97593.98
2018-03-22T15:05:27.711Z,97596.14
2018-03-22T15:07:57.231Z,97592.25
2018-03-22T15:10:26.968Z,97592.15
2018-03-22T15:12:55.824Z,97593.91
2018-03-22T15:15:25.043Z,97584.89
2018-03-22T15:17:56.669Z,97574.01
2018-03-22T15:20:26.572Z,97564.65
2018-03-22T15:22:56.373Z,97563.98
2018-03-22T15:25:26.040Z,97558.78
2018-03-22T15:27:55.192Z,97560.47
2018-03-22T15:30:24.015Z,97561.48
2018-03-22T15:32:52.790Z,97563.38
2018-03-22T15:35:22.285Z,97558.18
2018-03-22T15:37:50.838Z,97553.17
2018-03-22T15:40:20.390Z,97557.16
2018-03-22T15:42:49.105Z,97566.91
2018-03-22T15:45:17.764Z,97555.87
2018-03-22T15:47:47.697Z,97560.67
2018-03-22T15:50:17.496Z,97560.27
2018-03-22T15:52:46.144Z,97575.55
2018-03-22T15:55:15.561Z,97573.30
2018-03-22T15:57:45.091Z,97576.81
2018-03-22T16:00:14.557Z,97573.59
2018-03-22T16:02:43.780Z,97572.06
2018-03-22T16:05:12.477Z,97566.56
2018-03-22T16:07:41.293Z,97580.59
2018-03-22T16:10:10.012Z,97577.30
2018-03-22T16:12:39.178Z,97579.55
2018-03-22T16:15:09.273Z,97578.99
2018-03-22T16:17:39.036Z,97575.63
2018-03-22T16:20:09.143Z,97593.56
2018-03-22T16:22:38.006Z,97582.95
2018-03-22T16:25:06.848Z,97583.17
2018-03-22T16:27:35.635Z,97585.28
2018-03-22T16:30:04.780Z,97590.05
2018-03-22T16:32:33.568Z,97584.91
2018-03-22T16:35:02.329Z,97586.84
2018-03-22T16:37:31.101Z,97581.97
2018-03-22T16:39:59.767Z,97596.20
2018-03-22T16:42:29.282Z,97590.09
2018-03-22T16:44:58.752Z,97590.08
2018-03-22T16:47:27.909Z,97586.56
2018-03-22T16:49:57.842Z,97582.51
2018-03-22T16:52:26.907Z,97578.70
2018-03-22T16:54:55.813Z,97579.52
2018-03-22T16:57:24.546Z,97573.70
2018-03-22T16:59:53.454Z,97574.53
2018-03-22T17:02:22.552Z,97571.59
2018-03-22T17:04:51.218Z,97580.41
2018-03-22T17:07:20.112Z,97582.70
2018-03-22T17:09:48.968Z,97584.41
2018-03-22T17:12:18.820Z,97583.24
2018-03-22T17:14:48.000Z,97568.34
2018-03-22T17:17:19.304Z,97582.11
2018-03-22T17:19:49.461Z,97574.44
2018-03-22T17:22:19.358Z,97573.83
2018-03-22T17:24:53.062Z,97586.95
2018-03-22T17:27:22.859Z,97580.67
2018-03-22T17:29:51.593Z,97585.42
2018-03-22T17:32:21.157Z,97588.66
2018-03-22T17:34:50.024Z,97588.94
2018-03-22T17:37:18.756Z,97592.42
2018-03-22T17:39:48.385Z,97595.44
2018-03-22T17:42:19.780Z,97599.62
2018-03-22T17:44:49.392Z,97595.93
2018-03-22T17:47:18.366Z,97595.83
2018-03-22T17:49:47.304Z,97593.90
2018-03-22T17:52:17.033Z,97591.88
2018-03-22T17:54:46.692Z,97596.38
2018-03-22T17:57:15.654Z,97603.89
2018-03-22T17:59:44.681Z,97596.69
2018-03-22T18:02:14.419Z,97601.56
2018-03-22T18:04:43.372Z,97601.38
2018-03-22T18:07:12.337Z,97603.23
2018-03-22T18:09:42.472Z,97599.61
2018-03-22T18:12:12.181Z,97599.38
2018-03-22T18:14:41.577Z,97601.52
2018-03-22T18:17:10.733Z,97618.89
2018-03-22T18:19:39.700Z,97620.76
2018-03-22T18:22:08.764Z,97620.17
2018-03-22T18:24:38.018Z,97612.98
2018-03-22T18:27:07.072Z,97618.12
2018-03-22T18:29:36.102Z,97613.28
2018-03-22T18:32:04.943Z,97615.55
2018-03-22T18:34:34.084Z,97616.77
2018-03-22T18:37:03.053Z,97619.08
2018-03-22T18:39:32.119Z,97620.12
2018-03-22T18:42:02.751Z,97622.23
2018-03-22T18:44:32.804Z,97618.74
2018-03-22T18:47:04.024Z,97613.77
2018-03-22T18:49:33.995Z,97623.13
2018-03-22T18:52:03.694Z,97616.58
2018-03-22T18:54:33.404Z,97618.23
2018-03-22T18:57:02.412Z,97614.73
2018-03-22T18:59:31.529Z,97612.59
2018-03-22T19:02:00.612Z,97612.05
2018-03-22T19:04:29.894Z,97607.77
2018-03-22T19:07:00.082Z,97611.27
2018-03-22T19:09:30.135Z,97607.22
2018-03-22T19:11:59.326Z,97613.81
2018-03-22T19:14:29.633Z,97609.77
2018-03-22T19:16:58.957Z,97608.46
2018-03-22T19:19:29.041Z,97611.89
2018-03-22T19:21:59.162Z,97604.87
2018-03-22T19:24:28.184Z,97604.97
2018-03-22T19:26:57.280Z,97603.41
2018-03-22T19:29:27.781Z,97607.22
2018-03-22T19:31:58.491Z,97600.00
2018-03-22T19:34:28.241Z,97604.44
2018-03-22T19:36:57.481Z,97597.31
2018-03-22T19:39:27.944Z,97602.20
2018-03-22T19:41:57.068Z,97599.51
2018-03-22T19:44:26.565Z,97592.14
2018-03-22T19:46:55.780Z,97589.87
2018-03-22T19:49:25.308Z,97590.63
2018-03-22T19:51:55.195Z,97592.03
2018-03-22T19:54:25.236Z,97586.24
2018-03-22T19:56:55.785Z,97578.59
2018-03-22T19:59:25.625Z,97581.41
2018-03-22T20:01:57.580Z,97590.02
2018-03-22T20:04:26.501Z,97572.02
2018-03-22T20:06:56.152Z,97577.97
2018-03-22T20:09:25.108Z,97578.88
2018-03-22T20:11:55.225Z,97581.28
2018-03-22T20:14:24.348Z,97576.77
2018-03-22T20:16:53.464Z,97571.13
2018-03-22T20:19:22.636Z,97575.77
2018-03-22T20:21:52.422Z,97575.88
2018-03-22T20:24:22.152Z,97561.58
2018-03-22T20:26:52.164Z,97570.35
2018-03-22T20:29:22.240Z,97570.97
2018-03-22T20:31:51.744Z,97561.17
2018-03-22T20:34:21.327Z,97566.23
2018-03-22T20:36:51.223Z,97561.16
2018-03-22T20:39:21.214Z,97557.52
2018-03-22T20:41:50.740Z,97553.58
2018-03-22T20:44:20.390Z,97557.67
2018-03-22T20:46:49.449Z,97549.52
2018-03-22T20:49:18.700Z,97550.33
2018-03-22T20:51:50.083Z,97544.30
2018-03-22T20:54:19.344Z,97553.86
2018-03-22T20:56:48.210Z,97546.84
2018-03-22T20:59:17.594Z,97543.55
2018-03-22T21:01:46.684Z,97550.30
2018-03-22T21:04:16.233Z,97540.70
2018-03-22T21:06:46.586Z,97537.25
2018-03-22T21:09:15.793Z,97543.27
2018-03-22T21:11:44.672Z,97540.83
2018-03-22T21:14:13.449Z,97535.42
2018-03-22T21:16:42.411Z,97540.81
2018-03-22T21:19:12.112Z,97537.06
2018-03-22T21:21:41.245Z,97530.16
2018-03-22T21:24:10.565Z,97543.86
2018-03-22T21:26:39.692Z,97520.25
2018-03-22T21:29:08.535Z,97530.37
2018-03-22T21:31:38.125Z,97517.12
2018-03-22T21:34:07.061Z,97517.09
2018-03-22T21:36:35.975Z,97515.91
2018-03-22T21:39:05.054Z,97511.36
2018-03-22T21:41:34.438Z,97503.31
2018-03-22T21:44:16.831Z,97502.84
2018-03-22T21:46:45.450Z,97499.98
2018-03-22T21:49:14.985Z,97499.39
2018-03-22T21:54:54.576Z,97494.74
2018-03-22T21:57:23.842Z,97503.97
2018-03-22T21:59:53.431Z,97488.65
2018-03-22T22:02:23.879Z,97494.72
2018-03-22T22:04:53.213Z,97496.42
2018-03-22T22:07:23.070Z,97487.33
2018-03-22T22:09:52.142Z,97480.50
2018-03-22T22:12:20.893Z,97480.05
2018-03-22T22:14:49.601Z,97476.82
2018-03-22T22:17:19.422Z,97482.29
2018-03-22T22:19:48.263Z,97476.13
2018-03-22T22:22:16.886Z,97479.06
2018-03-22T22:24:46.187Z,97468.03
2018-03-22T22:27:16.233Z,97470.91
2018-03-22T22:29:45.730Z,97467.94
2018-03-22T22:32:14.590Z,97471.32
2018-03-22T22:34:43.836Z,97470.78
2018-03-22T22:37:12.892Z,97465.16
2018-03-22T22:39:42.511Z,97463.87
2018-03-22T22:42:12.132Z,97460.29
2018-03-22T22:44:41.006Z,97451.62
2018-03-22T22:47:09.712Z,97451.95
2018-03-22T22:49:38.407Z,97449.05
2018-03-22T22:52:07.107Z,97447.05
2018-03-22T22:54:35.775Z,97443.05
2018-03-22T22:57:04.547Z,97442.53
2018-03-22T22:59:33.118Z,97446.39
2018-03-22T23:02:02.659Z,97445.28
2018-03-22T23:04:32.384Z,97444.08
2018-03-22T23:07:01.668Z,97442.58
2018-03-22T23:09:30.610Z,97439.56
2018-03-22T23:11:59.289Z,97437.64
2018-03-22T23:14:28.003Z,97444.66
2018-03-22T23:16:57.673Z,97444.99
2018-03-22T23:19:26.383Z,97437.77
2018-03-22T23:21:55.278Z,97431.23
2018-03-22T23:24:23.996Z,97437.92
2018-03-22T23:26:52.609Z,97431.72
2018-03-22T23:29:22.049Z,97440.70
2018-03-22T23:31:50.831Z,97427.39
2018-03-22T23:34:19.791Z,97431.04
2018-03-22T23:36:49.020Z,97419.76
2018-03-22T23:39:19.170Z,97421.51
2018-03-22T23:41:47.891Z,97425.57
2018-03-22T23:44:18.243Z,97427.13
2018-03-22T23:46:46.961Z,97433.92
2018-03-22T23:49:15.855Z,97431.55
2018-03-22T23:51:45.324Z,97426.17
2018-03-22T23:54:14.212Z,97424.30
2018-03-22T23:56:42.806Z,97419.86
2018-03-22T23:59:11.528Z,97420.08
